Time;durP1;ratioP1;P1;durP2;ratioP2;P2;SDS_P1;SDS_P2;PMS_P1;PMS_P2;Temp;Humidity;BMP_temperature;BMP_pressure;BME280_temperature;BME280_humidity;BME280_pressure;Samples;Min_cycle;Max_cycle;Signal;HPM_P1;HPM_P2
2022/02/21 00:00:17;;;;;;;4.80;0.68;;;10.10;99.90;;;;;;5065210;28;20874;-52
2022/02/21 00:02:45;;;;;;;4.28;0.90;;;10.00;99.90;;;;;;5061187;28;20404;-54
2022/02/21 00:05:14;;;;;;;5.57;0.80;;;10.10;99.90;;;;;;5065108;28;20407;-55
2022/02/21 00:07:40;;;;;;;5.55;0.85;;;10.10;99.90;;;;;;5059393;28;20379;-55
2022/02/21 00:10:07;;;;;;;4.10;0.82;;;10.10;99.90;;;;;;5066302;28;20571;-55
2022/02/21 00:12:34;;;;;;;8.20;1.10;;;10.20;99.90;;;;;;5060726;28;20384;-59
2022/02/21 00:15:03;;;;;;;6.93;1.00;;;10.20;99.90;;;;;;5061847;28;20437;-57
2022/02/21 00:17:29;;;;;;;5.57;1.00;;;10.20;99.90;;;;;;5044911;28;20410;-55
2022/02/21 00:19:55;;;;;;;5.70;0.90;;;10.20;99.90;;;;;;5063545;28;20402;-55
2022/02/21 00:22:20;;;;;;;6.27;1.17;;;10.70;99.90;;;;;;5066044;28;20380;-55
2022/02/21 00:24:46;;;;;;;4.10;0.80;;;10.20;99.90;;;;;;5062046;28;20400;-56
2022/02/21 00:27:12;;;;;;;5.07;0.93;;;10.20;99.90;;;;;;5060952;28;20826;-55
2022/02/21 00:29:37;;;;;;;3.50;0.68;;;10.20;99.90;;;;;;5061306;28;20825;-58
2022/02/21 00:32:04;;;;;;;6.80;1.00;;;10.20;99.90;;;;;;5065116;28;20386;-54
2022/02/21 00:34:29;;;;;;;4.60;0.80;;;10.20;99.90;;;;;;5061118;28;20443;-53
2022/02/21 00:36:55;;;;;;;4.10;0.90;;;11.00;99.90;;;;;;5061895;28;20777;-53
2022/02/21 00:39:21;;;;;;;3.77;0.67;;;10.20;99.90;;;;;;5062482;28;20480;-53
2022/02/21 00:41:46;;;;;;;4.60;0.83;;;10.10;99.90;;;;;;5063999;28;20807;-54
2022/02/21 00:44:12;;;;;;;4.80;0.68;;;10.10;99.90;;;;;;5065961;28;20391;-54
2022/02/21 00:46:38;;;;;;;5.67;0.87;;;10.00;99.90;;;;;;5062189;28;20375;-54
2022/02/21 00:49:05;;;;;;;3.95;0.80;;;9.90;99.90;;;;;;5068248;28;20897;-53
2022/02/21 00:51:31;;;;;;;6.40;0.70;;;9.80;99.90;;;;;;5068441;28;20392;-53
2022/02/21 00:53:56;;;;;;;7.20;1.17;;;9.80;99.90;;;;;;5068077;28;20375;-54
2022/02/21 00:56:22;;;;;;;6.00;1.17;;;9.80;99.90;;;;;;5069067;28;20421;-54
2022/02/21 00:58:48;;;;;;;5.88;1.00;;;9.80;99.90;;;;;;5061268;28;20534;-53
2022/02/21 01:01:14;;;;;;;3.80;0.80;;;9.80;99.90;;;;;;5063762;28;20376;-54
2022/02/21 01:03:40;;;;;;;5.03;1.40;;;9.90;99.90;;;;;;5068561;28;20376;-54
2022/02/21 01:06:05;;;;;;;5.85;1.17;;;9.90;99.90;;;;;;5072550;28;20776;-53
2022/02/21 01:08:31;;;;;;;4.90;0.90;;;9.90;99.90;;;;;;5072409;28;20384;-54
2022/02/21 01:10:57;;;;;;;7.00;0.90;;;9.90;99.90;;;;;;5071664;28;20382;-54
2022/02/21 01:13:22;;;;;;;4.20;0.70;;;9.90;99.90;;;;;;5072536;28;20380;-54
2022/02/21 01:15:48;;;;;;;4.30;0.60;;;9.90;99.90;;;;;;5071762;28;20379;-54
2022/02/21 01:18:14;;;;;;;4.87;0.83;;;9.90;99.90;;;;;;5071759;28;20398;-53
2022/02/21 01:20:39;;;;;;;4.55;0.70;;;9.70;99.90;;;;;;5066127;28;20446;-53
2022/02/21 01:23:05;;;;;;;4.80;1.10;;;9.80;99.90;;;;;;5072088;28;20368;-53
2022/02/21 01:25:31;;;;;;;4.10;0.70;;;9.80;99.90;;;;;;5071787;28;20876;-53
2022/02/21 01:27:57;;;;;;;5.00;0.70;;;9.80;99.90;;;;;;5070741;28;20392;-54
2022/02/21 01:30:22;;;;;;;4.10;0.90;;;9.80;99.90;;;;;;5071973;28;20415;-53
2022/02/21 01:32:48;;;;;;;5.43;1.00;;;9.80;99.90;;;;;;5071129;28;20380;-54
2022/02/21 01:35:14;;;;;;;4.55;1.00;;;9.80;99.90;;;;;;5072073;28;20375;-53
2022/02/21 01:37:39;;;;;;;7.70;1.07;;;9.80;99.90;;;;;;5065507;28;20462;-53
2022/02/21 01:40:09;;;;;;;3.78;0.60;;;9.80;99.90;;;;;;5069533;28;20388;-53
2022/02/21 01:42:36;;;;;;;3.90;0.80;;;9.70;99.90;;;;;;5069084;28;20911;-57
2022/02/21 01:45:03;;;;;;;4.00;0.63;;;9.70;99.90;;;;;;5071451;28;20384;-54
2022/02/21 01:47:29;;;;;;;4.18;0.75;;;9.70;99.90;;;;;;5071398;28;20400;-53
2022/02/21 01:49:54;;;;;;;4.00;0.60;;;9.70;99.90;;;;;;5070651;28;20477;-53
2022/02/21 01:52:20;;;;;;;5.13;0.90;;;9.70;99.90;;;;;;5071860;28;20573;-53
2022/02/21 01:54:46;;;;;;;4.05;0.70;;;9.70;99.90;;;;;;5070763;28;20388;-53
2022/02/21 01:57:13;;;;;;;3.85;0.73;;;9.60;99.90;;;;;;5071664;28;20724;-53
2022/02/21 01:59:39;;;;;;;3.60;0.68;;;9.90;99.90;;;;;;5070645;28;20410;-54
2022/02/21 02:02:06;;;;;;;4.50;0.70;;;9.70;99.90;;;;;;5071403;28;20408;-54
2022/02/21 02:04:32;;;;;;;3.77;0.60;;;9.80;99.90;;;;;;5071396;28;20465;-53
2022/02/21 02:07:00;;;;;;;4.50;0.70;;;9.70;99.90;;;;;;5070687;28;20387;-53
2022/02/21 02:09:26;;;;;;;4.10;0.70;;;9.60;99.90;;;;;;5071076;28;20482;-54
2022/02/21 02:11:52;;;;;;;4.18;0.70;;;9.60;99.90;;;;;;5060903;28;20407;-53
2022/02/21 02:14:32;;;;;;;5.10;0.80;;;9.60;99.90;;;;;;5070781;28;20380;-54
2022/02/21 02:17:05;;;;;;;5.28;0.90;;;9.60;99.90;;;;;;5070122;28;20432;-54
2022/02/21 02:19:30;;;;;;;4.82;0.70;;;9.60;99.90;;;;;;5071328;28;20388;-54
2022/02/21 02:21:57;;;;;;;5.90;0.97;;;9.60;99.90;;;;;;5070065;28;20400;-54
2022/02/21 02:24:24;;;;;;;4.05;0.75;;;9.60;99.90;;;;;;5070907;28;20471;-54
2022/02/21 02:26:56;;;;;;;4.93;0.80;;;9.60;99.90;;;;;;5070188;28;20889;-54
2022/02/21 02:29:22;;;;;;;5.50;0.70;;;9.70;99.90;;;;;;5066111;28;20407;-54
2022/02/21 02:31:48;;;;;;;5.47;0.70;;;9.70;99.90;;;;;;5067432;28;20387;-54
2022/02/21 02:34:15;;;;;;;3.90;0.73;;;9.70;99.90;;;;;;5070799;28;20376;-53
2022/02/21 02:36:40;;;;;;;4.10;0.82;;;9.70;99.90;;;;;;5070089;28;20415;-54
2022/02/21 02:39:06;;;;;;;5.40;1.00;;;9.80;99.90;;;;;;5070909;28;20414;-54
2022/02/21 02:41:32;;;;;;;3.50;0.80;;;9.80;99.90;;;;;;5070482;28;20778;-53
2022/02/21 02:43:57;;;;;;;4.30;0.60;;;9.80;99.90;;;;;;5070087;28;21036;-54
2022/02/21 02:46:23;;;;;;;3.77;0.80;;;9.80;99.90;;;;;;5070190;28;21018;-55
2022/02/21 02:48:48;;;;;;;5.50;0.90;;;9.80;99.90;;;;;;5069954;28;20469;-54
2022/02/21 02:51:14;;;;;;;3.40;0.40;;;9.70;99.90;;;;;;5070741;28;20384;-54
2022/02/21 02:53:40;;;;;;;3.40;0.50;;;9.70;99.90;;;;;;5069721;28;20453;-54
2022/02/21 02:56:05;;;;;;;4.17;0.63;;;9.60;99.90;;;;;;5067715;28;20370;-54
2022/02/21 02:58:31;;;;;;;4.50;0.70;;;9.60;99.90;;;;;;5070356;28;20392;-53
2022/02/21 03:00:56;;;;;;;5.30;0.70;;;9.50;99.90;;;;;;5069488;28;21034;-53
2022/02/21 03:03:22;;;;;;;3.80;0.70;;;9.40;99.90;;;;;;5070240;28;20451;-53
2022/02/21 03:05:47;;;;;;;3.92;0.60;;;9.40;99.90;;;;;;5069217;28;20426;-54
2022/02/21 03:08:13;;;;;;;6.10;0.50;;;9.30;99.90;;;;;;5070055;28;20387;-54
2022/02/21 03:10:39;;;;;;;4.60;0.73;;;9.20;99.90;;;;;;5069511;28;20407;-57
2022/02/21 03:13:04;;;;;;;3.60;0.60;;;9.20;99.90;;;;;;5070257;28;20383;-53
2022/02/21 03:15:30;;;;;;;3.70;0.55;;;9.20;99.90;;;;;;5070421;28;20400;-53
2022/02/21 03:17:56;;;;;;;3.20;0.50;;;9.10;99.90;;;;;;5068984;28;20399;-55
2022/02/21 03:20:21;;;;;;;3.70;0.60;;;9.10;99.90;;;;;;5070004;28;20412;-55
2022/02/21 03:22:47;;;;;;;3.20;0.57;;;9.20;99.90;;;;;;5066615;28;20383;-54
2022/02/21 03:25:13;;;;;;;4.80;0.60;;;9.20;99.90;;;;;;5069811;28;20387;-55
2022/02/21 03:27:44;;;;;;;5.20;0.60;;;9.20;99.90;;;;;;5064924;28;20403;-58
2022/02/21 03:30:11;;;;;;;14.35;1.40;;;9.20;99.90;;;;;;5067396;28;20535;-53
2022/02/21 03:32:37;;;;;;;5.55;0.73;;;7.20;99.90;;;;;;5069457;28;20405;-60
2022/02/21 03:35:04;;;;;;;3.70;0.40;;;5.20;99.90;;;;;;5060075;28;20932;-54
2022/02/21 03:37:30;;;;;;;3.53;0.50;;;4.60;99.90;;;;;;5069683;28;20416;-55
2022/02/21 03:39:56;;;;;;;4.80;0.60;;;4.30;99.90;;;;;;5059386;28;20456;-54
2022/02/21 03:42:22;;;;;;;6.03;0.73;;;5.30;99.90;;;;;;5060290;28;20804;-53
2022/02/21 03:44:47;;;;;;;5.00;0.50;;;4.10;99.90;;;;;;5068830;28;20395;-54
2022/02/21 03:47:13;;;;;;;3.00;0.40;;;4.30;99.90;;;;;;5069350;28;20460;-53
2022/02/21 03:49:38;;;;;;;5.60;0.70;;;4.30;99.90;;;;;;5069023;28;20804;-58
2022/02/21 03:52:05;;;;;;;3.50;0.50;;;4.30;99.90;;;;;;5069694;28;20387;-54
2022/02/21 03:54:30;;;;;;;4.80;0.60;;;4.20;99.90;;;;;;5069470;28;20426;-54
2022/02/21 03:56:56;;;;;;;5.60;0.60;;;4.20;99.90;;;;;;5069026;28;20428;-54
2022/02/21 03:59:21;;;;;;;4.90;0.80;;;4.20;99.90;;;;;;5069522;28;20389;-56
2022/02/21 04:01:48;;;;;;;3.20;0.50;;;4.20;99.90;;;;;;5068510;28;20440;-55
2022/02/21 04:04:14;;;;;;;7.20;0.70;;;4.10;99.90;;;;;;5069444;28;20383;-54
2022/02/21 04:06:41;;;;;;;3.67;0.70;;;4.10;99.90;;;;;;5068573;28;20384;-57
2022/02/21 04:09:06;;;;;;;5.20;0.80;;;4.10;99.90;;;;;;5066623;28;20410;-54
2022/02/21 04:11:32;;;;;;;6.20;0.70;;;4.00;99.90;;;;;;5069312;28;20869;-53
2022/02/21 04:13:58;;;;;;;8.48;0.88;;;4.70;99.90;;;;;;5068413;28;21018;-53
2022/02/21 04:16:23;;;;;;;7.70;0.80;;;4.00;99.90;;;;;;5069230;28;20383;-53
2022/02/21 04:18:49;;;;;;;4.57;0.60;;;4.00;99.90;;;;;;5066372;28;20406;-55
2022/02/21 04:21:15;;;;;;;4.60;0.70;;;4.00;99.90;;;;;;5067350;28;20422;-53
2022/02/21 04:23:40;;;;;;;5.23;0.50;;;4.10;99.90;;;;;;5068815;28;20722;-56
2022/02/21 04:26:06;;;;;;;3.08;0.40;;;4.30;99.90;;;;;;5068605;28;20500;-54
2022/02/21 04:28:31;;;;;;;4.00;0.50;;;4.70;99.90;;;;;;5069204;28;20372;-53
2022/02/21 04:30:57;;;;;;;3.80;0.57;;;4.60;99.90;;;;;;5068496;28;21047;-57
2022/02/21 04:33:23;;;;;;;3.30;0.50;;;4.80;99.90;;;;;;5068925;28;20387;-56
2022/02/21 04:35:48;;;;;;;4.30;0.63;;;4.80;99.90;;;;;;5068572;28;20383;-56
2022/02/21 04:38:14;;;;;;;4.07;0.77;;;4.90;99.90;;;;;;5071374;28;20383;-56
2022/02/21 04:40:40;;;;;;;4.50;0.70;;;4.80;99.90;;;;;;5072724;28;20869;-61
2022/02/21 04:43:05;;;;;;;5.38;0.70;;;4.80;99.90;;;;;;5073245;28;20407;-56
2022/02/21 04:45:31;;;;;;;5.83;1.20;;;4.80;99.90;;;;;;5073199;28;20441;-57
2022/02/21 04:47:56;;;;;;;7.35;0.90;;;4.90;99.90;;;;;;5071965;28;20403;-56
2022/02/21 04:50:22;;;;;;;5.50;0.50;;;4.90;99.90;;;;;;5072978;28;20418;-57
2022/02/21 04:52:48;;;;;;;8.70;0.90;;;5.00;99.90;;;;;;5071948;28;20745;-56
2022/02/21 04:55:14;;;;;;;10.90;1.10;;;5.00;99.90;;;;;;5072856;28;20383;-56
2022/02/21 04:57:40;;;;;;;6.40;1.00;;;5.00;99.90;;;;;;5072490;28;20417;-60
2022/02/21 05:00:09;;;;;;;5.63;0.60;;;5.00;99.90;;;;;;5063200;28;20387;-56
2022/02/21 05:02:37;;;;;;;6.85;0.90;;;5.00;99.90;;;;;;5070469;28;20388;-56
2022/02/21 05:05:03;;;;;;;7.80;0.70;;;5.00;99.90;;;;;;5062371;28;20417;-56
2022/02/21 05:07:30;;;;;;;4.65;1.17;;;5.00;99.90;;;;;;5072673;28;20388;-57
2022/02/21 05:09:56;;;;;;;8.35;1.67;;;6.10;99.90;;;;;;5071500;28;20519;-56
2022/02/21 05:12:21;;;;;;;6.60;1.10;;;6.20;99.90;;;;;;5072460;28;20479;-57
2022/02/21 05:14:47;;;;;;;6.30;1.10;;;5.10;99.90;;;;;;5070061;28;20938;-56
2022/02/21 05:17:13;;;;;;;6.80;1.00;;;5.20;99.90;;;;;;5062624;28;20992;-56
2022/02/21 05:19:38;;;;;;;8.07;1.17;;;5.20;99.90;;;;;;5072124;28;20396;-60
2022/02/21 05:22:04;;;;;;;5.10;0.87;;;5.20;99.90;;;;;;5061459;28;20905;-57
2022/02/21 05:24:30;;;;;;;6.18;1.13;;;5.60;99.90;;;;;;5072958;28;20380;-56
2022/02/21 05:26:55;;;;;;;5.97;1.20;;;5.20;99.90;;;;;;5072107;28;20376;-56
2022/02/21 05:29:21;;;;;;;7.90;1.33;;;5.20;99.90;;;;;;5054471;28;20401;-58
2022/02/21 05:31:47;;;;;;;6.78;1.30;;;5.30;99.90;;;;;;5054202;28;20499;-56
2022/02/21 05:34:13;;;;;;;8.37;1.50;;;5.20;99.90;;;;;;5052861;28;20385;-56
2022/02/21 05:36:39;;;;;;;9.65;1.88;;;6.10;99.90;;;;;;5056167;28;20404;-57
2022/02/21 05:39:05;;;;;;;9.20;1.20;;;5.30;99.90;;;;;;5052738;28;20409;-56
2022/02/21 05:41:30;;;;;;;7.82;1.20;;;5.30;99.90;;;;;;5063684;28;20402;-56
2022/02/21 05:43:56;;;;;;;5.13;1.15;;;5.40;99.90;;;;;;5072315;28;20852;-54
2022/02/21 05:46:21;;;;;;;14.10;1.60;;;5.30;99.90;;;;;;5072508;28;20388;-56
2022/02/21 05:48:47;;;;;;;11.10;1.20;;;5.30;99.90;;;;;;5071158;28;20745;-56
2022/02/21 05:51:13;;;;;;;7.13;1.30;;;5.30;99.90;;;;;;5071913;28;20400;-56
2022/02/21 05:53:42;;;;;;;7.75;1.10;;;5.30;99.90;;;;;;5061254;28;20884;-61
2022/02/21 05:56:08;;;;;;;6.17;1.57;;;5.40;99.90;;;;;;5066034;28;20403;-57
2022/02/21 05:58:34;;;;;;;6.57;1.45;;;5.40;99.90;;;;;;5072687;28;20402;-56
2022/02/21 06:01:00;;;;;;;12.80;1.80;;;5.40;99.90;;;;;;5061994;28;21064;-58
2022/02/21 06:03:25;;;;;;;6.10;1.50;;;5.50;99.90;;;;;;5071037;28;20398;-57
2022/02/21 06:05:51;;;;;;;8.57;1.50;;;5.40;99.90;;;;;;5069148;28;20466;-57
2022/02/21 06:08:17;;;;;;;9.43;1.57;;;5.40;99.90;;;;;;5066942;28;20450;-59
2022/02/21 06:10:42;;;;;;;11.95;1.52;;;5.40;99.90;;;;;;5068312;28;20439;-57
2022/02/21 06:13:08;;;;;;;6.03;1.30;;;5.30;99.90;;;;;;5067145;28;20469;-57
2022/02/21 06:15:33;;;;;;;10.60;1.70;;;5.40;99.90;;;;;;5076340;28;20483;-57
2022/02/21 06:17:59;;;;;;;7.20;1.30;;;5.40;99.90;;;;;;5087540;28;20467;-56
2022/02/21 06:20:26;;;;;;;9.47;1.80;;;5.40;99.90;;;;;;5077600;28;20481;-55
2022/02/21 06:22:52;;;;;;;10.98;1.80;;;5.30;99.90;;;;;;5087352;28;20413;-56
2022/02/21 06:25:17;;;;;;;7.40;1.63;;;5.30;99.90;;;;;;5075861;28;20417;-56
2022/02/21 06:27:43;;;;;;;10.55;1.83;;;6.10;99.90;;;;;;5064708;28;20886;-57
2022/02/21 06:30:09;;;;;;;10.23;1.55;;;5.40;99.90;;;;;;5063450;28;20408;-54
2022/02/21 06:32:35;;;;;;;8.30;1.60;;;5.30;99.90;;;;;;5068430;28;20390;-55
2022/02/21 06:35:01;;;;;;;10.15;2.05;;;5.30;99.90;;;;;;5061408;28;21214;-54
2022/02/21 06:37:27;;;;;;;10.57;1.40;;;5.30;99.90;;;;;;5070492;28;20498;-55
2022/02/21 06:39:52;;;;;;;7.87;1.70;;;5.40;99.90;;;;;;5070514;28;20453;-54
2022/02/21 06:42:18;;;;;;;8.07;1.30;;;5.30;99.90;;;;;;5070366;28;20389;-54
2022/02/21 06:44:44;;;;;;;9.40;1.90;;;5.30;99.90;;;;;;5070405;28;20733;-54
2022/02/21 06:47:09;;;;;;;5.85;1.30;;;5.30;99.90;;;;;;5071216;28;20768;-55
2022/02/21 06:49:36;;;;;;;11.43;2.63;;;5.30;99.90;;;;;;5071101;28;20443;-54
2022/02/21 06:52:02;;;;;;;8.77;1.33;;;5.20;99.90;;;;;;5069456;28;20411;-55
2022/02/21 06:54:27;;;;;;;6.07;1.50;;;5.30;99.90;;;;;;5071001;28;20404;-54
2022/02/21 06:56:53;;;;;;;6.43;1.17;;;5.30;99.90;;;;;;5070133;28;20384;-54
2022/02/21 06:59:19;;;;;;;9.00;1.67;;;5.30;99.90;;;;;;5070722;28;20868;-54
2022/02/21 07:01:44;;;;;;;10.50;1.40;;;5.20;99.90;;;;;;5067581;28;20380;-58
2022/02/21 07:04:10;;;;;;;6.53;1.30;;;5.20;99.90;;;;;;5067570;28;20402;-55
2022/02/21 07:06:36;;;;;;;7.90;1.90;;;5.30;99.90;;;;;;5066734;28;20398;-55
2022/02/21 07:09:03;;;;;;;6.40;1.30;;;5.20;99.90;;;;;;5070153;28;20587;-55
2022/02/21 07:11:29;;;;;;;16.33;1.50;;;5.20;99.90;;;;;;5070757;28;20375;-55
2022/02/21 07:13:54;;;;;;;8.93;1.95;;;5.10;99.90;;;;;;5069895;28;20741;-54
2022/02/21 07:16:20;;;;;;;9.27;1.63;;;5.10;99.90;;;;;;5070680;28;20383;-55
2022/02/21 07:18:45;;;;;;;5.78;1.20;;;5.20;99.90;;;;;;5069899;28;20391;-54
2022/02/21 07:21:11;;;;;;;10.45;1.52;;;5.10;99.90;;;;;;5070304;28;20491;-54
2022/02/21 07:23:37;;;;;;;10.90;1.97;;;5.40;99.90;;;;;;5070648;28;20422;-54
2022/02/21 07:26:03;;;;;;;10.43;1.70;;;7.20;99.90;;;;;;5069752;28;20383;-54
2022/02/21 07:28:29;;;;;;;9.15;1.70;;;6.00;99.90;;;;;;5070145;28;20376;-55
2022/02/21 07:30:55;;;;;;;7.38;1.73;;;6.20;99.90;;;;;;5069453;28;20396;-55
2022/02/21 07:33:20;;;;;;;12.33;2.53;;;6.30;99.90;;;;;;5069954;28;20861;-55
2022/02/21 07:35:46;;;;;;;9.35;1.50;;;6.50;99.90;;;;;;5067881;28;20418;-55
2022/02/21 07:38:12;;;;;;;8.50;1.63;;;6.50;99.90;;;;;;5070623;28;20743;-55
2022/02/21 07:40:37;;;;;;;10.45;1.80;;;6.50;99.90;;;;;;5069893;28;20383;-55
2022/02/21 07:43:03;;;;;;;10.20;2.00;;;6.80;99.90;;;;;;5069500;28;20368;-54
2022/02/21 07:45:29;;;;;;;10.80;1.70;;;7.30;99.90;;;;;;5070000;28;20384;-53
2022/02/21 07:47:58;;;;;;;6.13;1.20;;;7.20;99.90;;;;;;5069288;28;20773;-56
2022/02/21 07:50:25;;;;;;;11.43;2.20;;;7.20;99.90;;;;;;5069702;28;20404;-54
2022/02/21 07:52:52;;;;;;;8.98;1.77;;;7.40;99.90;;;;;;5068966;28;20521;-53
2022/02/21 07:55:18;;;;;;;11.65;2.65;;;8.90;99.90;;;;;;5069830;28;20446;-53
2022/02/21 07:57:45;;;;;;;11.75;2.40;;;7.70;99.90;;;;;;5068737;28;20411;-55
2022/02/21 08:00:14;;;;;;;8.25;1.75;;;8.00;99.90;;;;;;5070063;28;20837;-54
2022/02/21 08:02:41;;;;;;;8.45;2.15;;;7.70;99.90;;;;;;5051409;28;20413;-57
2022/02/21 08:05:07;;;;;;;12.17;1.80;;;7.80;99.90;;;;;;5069587;28;20379;-54
2022/02/21 08:07:34;;;;;;;11.00;1.77;;;7.80;99.90;;;;;;5069556;28;20384;-54
2022/02/21 08:09:59;;;;;;;12.13;2.20;;;7.30;99.90;;;;;;5068854;28;20412;-54
2022/02/21 08:12:26;;;;;;;9.63;1.90;;;7.80;99.90;;;;;;5069203;28;20376;-54
2022/02/21 08:14:51;;;;;;;9.60;1.85;;;8.10;99.90;;;;;;5068662;28;20376;-53
2022/02/21 08:17:17;;;;;;;10.20;1.40;;;7.00;99.90;;;;;;5069326;28;20387;-55
2022/02/21 08:19:43;;;;;;;8.13;1.88;;;6.60;99.90;;;;;;5050851;28;20400;-59
2022/02/21 08:22:09;;;;;;;11.40;2.40;;;6.40;99.90;;;;;;5069212;28;20411;-55
2022/02/21 08:24:35;;;;;;;12.93;1.98;;;6.60;99.90;;;;;;5069476;28;20483;-56
2022/02/21 08:27:01;;;;;;;7.53;1.35;;;6.80;99.90;;;;;;5068315;28;21052;-54
2022/02/21 08:29:27;;;;;;;9.07;1.38;;;7.30;99.90;;;;;;5069520;28;20468;-55
2022/02/21 08:31:54;;;;;;;10.82;2.22;;;7.10;99.90;;;;;;5068636;28;20462;-55
2022/02/21 08:34:22;;;;;;;9.35;1.88;;;7.00;99.90;;;;;;5069320;28;20399;-56
2022/02/21 08:36:48;;;;;;;10.45;2.13;;;7.60;99.90;;;;;;5068639;28;20407;-55
2022/02/21 08:39:13;;;;;;;10.17;1.97;;;7.70;99.90;;;;;;5069555;28;20429;-53
2022/02/21 08:41:39;;;;;;;11.85;2.08;;;7.40;99.90;;;;;;5069348;28;20379;-54
2022/02/21 08:44:05;;;;;;;10.00;2.03;;;8.40;99.90;;;;;;5068895;28;20376;-55
2022/02/21 08:46:31;;;;;;;9.63;2.90;;;7.80;99.90;;;;;;5069292;28;20379;-54
2022/02/21 08:48:58;;;;;;;9.80;2.05;;;8.20;99.90;;;;;;5067914;28;20453;-54
2022/02/21 08:51:25;;;;;;;10.90;2.53;;;8.50;99.90;;;;;;5069286;28;20425;-54
2022/02/21 08:53:50;;;;;;;12.77;2.30;;;8.20;99.90;;;;;;5068198;28;20408;-54
2022/02/21 08:56:16;;;;;;;7.28;1.40;;;7.50;99.90;;;;;;5068820;28;20411;-56
2022/02/21 08:58:41;;;;;;;9.40;2.00;;;8.00;99.90;;;;;;5068783;28;20914;-59
2022/02/21 09:01:07;;;;;;;9.25;1.40;;;6.80;99.90;;;;;;5068983;28;20392;-56
2022/02/21 09:03:33;;;;;;;10.30;2.20;;;6.60;99.90;;;;;;5069182;28;20380;-56
2022/02/21 09:05:58;;;;;;;10.68;2.30;;;6.70;99.90;;;;;;5068624;28;20396;-55
2022/02/21 09:08:25;;;;;;;10.73;1.90;;;6.60;99.90;;;;;;5068828;28;20434;-56
2022/02/21 09:10:51;;;;;;;11.00;1.55;;;6.80;99.90;;;;;;5068384;28;20952;-56
2022/02/21 09:13:17;;;;;;;8.23;1.90;;;6.70;99.90;;;;;;5069221;28;20424;-55
2022/02/21 09:15:43;;;;;;;6.85;1.83;;;6.60;99.90;;;;;;5068702;28;20423;-59
2022/02/21 09:18:09;;;;;;;10.67;1.83;;;6.50;99.90;;;;;;5051157;28;20481;-56
2022/02/21 09:20:38;;;;;;;8.23;1.77;;;6.50;99.90;;;;;;5069046;28;20399;-56
2022/02/21 09:23:04;;;;;;;8.80;1.40;;;6.60;99.90;;;;;;5068197;28;20440;-56
2022/02/21 09:25:30;;;;;;;6.00;0.82;;;6.50;99.90;;;;;;5071138;28;20382;-57
2022/02/21 09:27:55;;;;;;;9.57;1.30;;;7.20;99.90;;;;;;5071563;28;20388;-55
2022/02/21 09:30:21;;;;;;;9.70;2.00;;;6.40;99.90;;;;;;5072128;28;20399;-55
2022/02/21 09:32:47;;;;;;;10.60;1.43;;;6.40;99.90;;;;;;5071861;28;20383;-57
2022/02/21 09:35:13;;;;;;;6.55;1.35;;;6.30;99.90;;;;;;5072700;28;20425;-55
2022/02/21 09:37:40;;;;;;;7.32;1.00;;;6.50;99.90;;;;;;5072386;28;20379;-54
2022/02/21 09:40:09;;;;;;;17.27;1.73;;;6.50;99.90;;;;;;5071910;28;20865;-56
2022/02/21 09:42:37;;;;;;;6.30;1.20;;;6.50;99.90;;;;;;5054554;28;20792;-55
2022/02/21 09:45:03;;;;;;;8.52;1.50;;;7.80;99.90;;;;;;5071625;28;20430;-55
2022/02/21 09:47:30;;;;;;;8.55;1.10;;;8.10;99.90;;;;;;5071806;28;20426;-55
2022/02/21 09:49:56;;;;;;;7.70;1.60;;;9.90;99.90;;;;;;5071431;28;20418;-55
2022/02/21 09:52:22;;;;;;;10.40;1.80;;;9.30;99.90;;;;;;5071463;28;20384;-55
2022/02/21 09:54:48;;;;;;;8.27;1.60;;;8.30;99.90;;;;;;5071048;28;20474;-55
2022/02/21 09:57:15;;;;;;;7.67;1.70;;;7.70;99.90;;;;;;5071829;28;20874;-55
2022/02/21 09:59:41;;;;;;;6.85;1.23;;;7.40;99.90;;;;;;5072007;28;20475;-57
2022/02/21 10:02:13;;;;;;;6.85;1.30;;;5.70;99.90;;;;;;5071314;28;20395;-54
2022/02/21 10:04:39;;;;;;;6.95;1.80;;;6.60;99.90;;;;;;5072041;28;20372;-55
2022/02/21 10:07:05;;;;;;;9.20;1.27;;;6.40;99.90;;;;;;5071034;28;20387;-55
2022/02/21 10:09:30;;;;;;;9.60;1.70;;;6.50;99.90;;;;;;5071680;28;20406;-55
2022/02/21 10:11:58;;;;;;;7.80;1.70;;;6.70;99.90;;;;;;5070998;28;20388;-55
2022/02/21 10:14:28;;;;;;;8.43;1.65;;;6.90;99.90;;;;;;5071612;28;20399;-54
2022/02/21 10:16:55;;;;;;;8.07;1.70;;;6.90;99.90;;;;;;5070929;28;20383;-54
2022/02/21 10:19:25;;;;;;;4.93;1.13;;;7.00;99.90;;;;;;5072122;28;20395;-55
2022/02/21 10:22:05;;;;;;;8.80;2.00;;;7.50;99.90;;;;;;5071107;28;20422;-54
2022/02/21 10:24:37;;;;;;;8.80;1.60;;;6.90;99.90;;;;;;5071419;28;20395;-55
2022/02/21 10:27:23;;;;;;;9.35;1.55;;;6.90;99.90;;;;;;5069558;28;21023;-55
2022/02/21 10:30:01;;;;;;;10.60;1.80;;;7.10;99.90;;;;;;5070886;28;20407;-55
2022/02/21 10:32:29;;;;;;;8.77;1.80;;;7.50;99.90;;;;;;5071246;28;20432;-54
2022/02/21 10:35:08;;;;;;;6.85;1.10;;;7.60;99.90;;;;;;5070438;28;20376;-54
2022/02/21 10:37:44;;;;;;;7.27;1.37;;;7.70;99.90;;;;;;5071559;28;20380;-55
2022/02/21 10:40:20;;;;;;;6.80;0.93;;;8.70;99.90;;;;;;5071279;28;20469;-52
2022/02/21 10:43:04;;;;;;;5.93;1.00;;;8.90;99.90;;;;;;5070731;28;20388;-58
2022/02/21 10:45:31;;;;;;;7.35;1.30;;;9.40;99.90;;;;;;5071236;28;20380;-55
2022/02/21 10:48:16;;;;;;;5.97;1.05;;;9.40;99.90;;;;;;5070510;28;20433;-55
2022/02/21 10:50:59;;;;;;;7.57;1.45;;;10.00;99.90;;;;;;5071095;28;20414;-58
2022/02/21 10:53:40;;;;;;;7.72;1.50;;;10.30;98.60;;;;;;5070815;28;20411;-55
2022/02/21 10:56:07;;;;;;;5.97;1.40;;;11.00;98.80;;;;;;5070065;28;20371;-55
2022/02/21 10:58:33;;;;;;;8.82;2.00;;;11.30;97.50;;;;;;5070761;28;20387;-55
2022/02/21 11:01:00;;;;;;;5.03;1.20;;;11.30;96.50;;;;;;5069674;28;20768;-55
2022/02/21 11:03:27;;;;;;;5.65;1.10;;;11.20;94.50;;;;;;5070669;28;20387;-55
2022/02/21 11:05:55;;;;;;;6.60;1.40;;;10.90;93.80;;;;;;5069712;28;20456;-55
2022/02/21 11:08:22;;;;;;;5.75;1.48;;;10.30;92.80;;;;;;5070593;28;20383;-54
2022/02/21 11:10:52;;;;;;;6.60;1.40;;;10.00;91.40;;;;;;5069715;28;20475;-56
2022/02/21 11:13:20;;;;;;;6.28;1.20;;;10.20;93.00;;;;;;5070717;28;20417;-56
2022/02/21 11:15:48;;;;;;;6.63;1.30;;;10.00;93.40;;;;;;5069791;28;20410;-57
2022/02/21 11:18:17;;;;;;;6.68;1.50;;;;;;;;;;5070326;28;20396;-53
2022/02/21 11:20:46;;;;;;;7.82;1.20;;;8.70;97.20;;;;;;5070534;28;20412;-56
2022/02/21 11:23:12;;;;;;;6.63;0.88;;;7.70;99.90;;;;;;5070754;28;20849;-55
2022/02/21 11:25:47;;;;;;;6.85;1.25;;;7.00;99.90;;;;;;5070251;28;20841;-55
2022/02/21 11:28:45;;;;;;;5.88;0.98;;;6.80;99.90;;;;;;5069548;28;20395;-55
2022/02/21 11:31:14;;;;;;;5.73;1.10;;;6.60;99.90;;;;;;5011465;28;20428;-56
2022/02/21 11:34:09;;;;;;;6.28;1.05;;;6.60;99.90;;;;;;5051033;28;20377;-56
2022/02/21 11:36:36;;;;;;;7.38;1.10;;;6.70;99.90;;;;;;5048430;28;20904;-55
2022/02/21 11:39:24;;;;;;;5.95;0.98;;;7.10;99.90;;;;;;5049455;28;20739;-53
2022/02/21 11:42:24;;;;;;;6.60;1.40;;;7.90;99.90;;;;;;5062331;28;20384;-54
2022/02/21 11:44:53;;;;;;;7.72;1.38;;;8.00;99.90;;;;;;5066369;28;20423;-54
2022/02/21 11:47:43;;;;;;;5.30;0.70;;;8.50;99.90;;;;;;5055226;28;20429;-53
2022/02/21 11:50:17;;;;;;;5.45;0.90;;;8.30;99.90;;;;;;5049235;28;20686;-53
2022/02/21 11:52:48;;;;;;;5.43;0.90;;;8.40;99.90;;;;;;5050228;28;20381;-54
2022/02/21 11:55:29;;;;;;;6.38;1.10;;;8.70;99.90;;;;;;5050099;28;20396;-53
2022/02/21 11:57:56;;;;;;;6.78;1.10;;;8.40;99.90;;;;;;5049330;28;20382;-53
2022/02/21 12:00:35;;;;;;;5.90;0.80;;;8.10;99.90;;;;;;5053310;28;20391;-53
2022/02/21 12:03:17;;;;;;;5.50;0.88;;;8.10;99.90;;;;;;5068558;28;20391;-54
2022/02/21 12:05:48;;;;;;;6.43;1.38;;;8.20;99.90;;;;;;5069083;28;20486;-53
2022/02/21 12:08:31;;;;;;;7.70;0.93;;;8.20;99.90;;;;;;5057125;28;20888;-54
2022/02/21 12:11:03;;;;;;;6.22;1.27;;;8.30;99.90;;;;;;5061088;28;20901;-54
2022/02/21 12:13:49;;;;;;;4.60;1.15;;;8.60;99.90;;;;;;5053979;28;20904;-53
2022/02/21 12:16:16;;;;;;;6.07;1.00;;;8.70;99.90;;;;;;5058107;28;20441;-54
2022/02/21 12:18:51;;;;;;;5.80;1.40;;;8.90;99.90;;;;;;5069094;28;20416;-53
2022/02/21 12:21:22;;;;;;;4.50;0.73;;;8.90;98.30;;;;;;5068530;28;20415;-54
2022/02/21 12:23:58;;;;;;;5.00;0.80;;;8.80;99.40;;;;;;5068879;28;20383;-57
2022/02/21 12:26:32;;;;;;;6.75;1.02;;;8.30;99.50;;;;;;5068746;28;20876;-54
2022/02/21 12:29:20;;;;;;;7.57;1.60;;;8.20;99.70;;;;;;5067855;28;20383;-53
2022/02/21 12:31:59;;;;;;;6.22;1.10;;;8.10;99.60;;;;;;5068625;28;20871;-53
2022/02/21 12:34:29;;;;;;;6.32;1.30;;;8.10;99.90;;;;;;5068593;28;20376;-52
2022/02/21 12:37:09;;;;;;;5.60;1.20;;;8.20;99.90;;;;;;5065548;28;20773;-53
2022/02/21 12:39:40;;;;;;;6.43;0.90;;;8.40;99.90;;;;;;5065822;28;20456;-53
2022/02/21 12:42:07;;;;;;;5.68;0.90;;;8.50;99.90;;;;;;5062494;28;21131;-53
2022/02/21 12:44:33;;;;;;;6.03;0.93;;;8.50;99.90;;;;;;5062286;28;20387;-53
2022/02/21 12:47:05;;;;;;;4.50;0.80;;;8.30;99.90;;;;;;5066700;28;20868;-53
2022/02/21 12:49:40;;;;;;;6.00;1.33;;;8.10;99.90;;;;;;5048915;28;20466;-53
2022/02/21 12:52:09;;;;;;;8.05;1.80;;;8.10;99.90;;;;;;5048280;28;20506;-54
2022/02/21 12:54:48;;;;;;;4.47;0.80;;;8.10;99.90;;;;;;5062181;28;20410;-53
2022/02/21 12:57:15;;;;;;;4.80;0.70;;;7.80;99.90;;;;;;5057376;28;20452;-53